Terminal Aerodrome Forecast
Issued by NWS

Home | Current Version | Previous Version | Text Only | Print | Product List | Glossary On
Versions: 1 2 3 4 5 6 7 8 9 10 11 12 13 14 15 16 17
163
FTUS44 KTSA 231137
TAFXNA
TAF
KXNA 231137Z 2312/2412 20007KT P6SM SKC
     FM231600 25014G20KT P6SM FEW250
     FM232000 32015G24KT P6SM FEW250
     FM240100 30010KT P6SM SKC=

USA.gov is the U.S. government's official web portal to all federal, state and local government web resources and services.